sensor_id;sensor_type;location;lat;lon;timestamp;P1;durP1;ratioP1;P2;durP2;ratioP2
77099;SDS011;66602;48.922;2.414;2023-05-29T00:00:13;9.02;;;5.13;;
77099;SDS011;66602;48.922;2.414;2023-05-29T00:02:42;9.52;;;5.70;;
77099;SDS011;66602;48.922;2.414;2023-05-29T00:05:09;14.23;;;5.35;;
77099;SDS011;66602;48.922;2.414;2023-05-29T00:07:38;9.63;;;5.43;;
77099;SDS011;66602;48.922;2.414;2023-05-29T00:10:05;8.43;;;5.90;;
77099;SDS011;66602;48.922;2.414;2023-05-29T00:12:32;9.00;;;5.82;;
77099;SDS011;66602;48.922;2.414;2023-05-29T00:14:58;11.05;;;5.18;;
77099;SDS011;66602;48.922;2.414;2023-05-29T00:17:24;11.63;;;5.80;;
77099;SDS011;66602;48.922;2.414;2023-05-29T00:19:49;13.77;;;5.90;;
77099;SDS011;66602;48.922;2.414;2023-05-29T00:22:15;6.82;;;5.78;;
77099;SDS011;66602;48.922;2.414;2023-05-29T00:24:41;7.07;;;5.60;;
77099;SDS011;66602;48.922;2.414;2023-05-29T00:27:06;11.27;;;5.53;;
77099;SDS011;66602;48.922;2.414;2023-05-29T00:29:33;10.40;;;5.30;;
77099;SDS011;66602;48.922;2.414;2023-05-29T00:31:59;14.98;;;5.50;;
77099;SDS011;66602;48.922;2.414;2023-05-29T00:34:25;10.82;;;5.32;;
77099;SDS011;66602;48.922;2.414;2023-05-29T00:36:51;7.15;;;5.10;;
77099;SDS011;66602;48.922;2.414;2023-05-29T00:39:17;7.05;;;5.05;;
77099;SDS011;66602;48.922;2.414;2023-05-29T00:41:43;11.32;;;5.30;;
77099;SDS011;66602;48.922;2.414;2023-05-29T00:44:08;10.85;;;5.13;;
77099;SDS011;66602;48.922;2.414;2023-05-29T00:46:34;11.45;;;5.18;;
77099;SDS011;66602;48.922;2.414;2023-05-29T00:49:00;8.18;;;4.78;;
77099;SDS011;66602;48.922;2.414;2023-05-29T00:51:26;17.50;;;5.55;;
77099;SDS011;66602;48.922;2.414;2023-05-29T00:53:53;7.97;;;5.28;;
77099;SDS011;66602;48.922;2.414;2023-05-29T00:56:20;8.40;;;5.55;;
77099;SDS011;66602;48.922;2.414;2023-05-29T00:58:48;5.60;;;4.80;;
77099;SDS011;66602;48.922;2.414;2023-05-29T01:01:18;7.32;;;5.20;;
77099;SDS011;66602;48.922;2.414;2023-05-29T01:03:43;10.60;;;4.70;;
77099;SDS011;66602;48.922;2.414;2023-05-29T01:06:10;8.60;;;5.20;;
77099;SDS011;66602;48.922;2.414;2023-05-29T01:08:36;6.32;;;4.93;;
77099;SDS011;66602;48.922;2.414;2023-05-29T01:14:01;7.60;;;5.00;;
77099;SDS011;66602;48.922;2.414;2023-05-29T01:16:36;12.27;;;5.80;;
77099;SDS011;66602;48.922;2.414;2023-05-29T01:19:15;6.85;;;5.50;;
77099;SDS011;66602;48.922;2.414;2023-05-29T01:22:12;7.85;;;5.22;;
77099;SDS011;66602;48.922;2.414;2023-05-29T01:24:50;8.13;;;5.28;;
77099;SDS011;66602;48.922;2.414;2023-05-29T01:27:30;8.30;;;5.35;;
77099;SDS011;66602;48.922;2.414;2023-05-29T01:29:57;7.70;;;5.20;;
77099;SDS011;66602;48.922;2.414;2023-05-29T01:32:24;9.82;;;5.85;;
77099;SDS011;66602;48.922;2.414;2023-05-29T01:34:51;11.02;;;5.43;;
77099;SDS011;66602;48.922;2.414;2023-05-29T01:37:16;7.78;;;5.03;;
77099;SDS011;66602;48.922;2.414;2023-05-29T01:39:42;10.68;;;5.47;;
77099;SDS011;66602;48.922;2.414;2023-05-29T01:42:07;11.07;;;4.90;;
77099;SDS011;66602;48.922;2.414;2023-05-29T01:44:34;9.98;;;5.00;;
77099;SDS011;66602;48.922;2.414;2023-05-29T01:47:00;6.80;;;5.20;;
77099;SDS011;66602;48.922;2.414;2023-05-29T01:49:26;10.77;;;5.40;;
77099;SDS011;66602;48.922;2.414;2023-05-29T01:51:54;7.25;;;5.50;;
77099;SDS011;66602;48.922;2.414;2023-05-29T01:54:20;16.48;;;5.30;;
77099;SDS011;66602;48.922;2.414;2023-05-29T01:56:46;12.60;;;5.40;;
77099;SDS011;66602;48.922;2.414;2023-05-29T01:59:12;10.57;;;5.03;;
77099;SDS011;66602;48.922;2.414;2023-05-29T02:01:39;11.25;;;5.30;;
77099;SDS011;66602;48.922;2.414;2023-05-29T02:04:05;8.00;;;5.43;;
77099;SDS011;66602;48.922;2.414;2023-05-29T02:06:30;12.38;;;5.40;;
77099;SDS011;66602;48.922;2.414;2023-05-29T02:08:58;10.73;;;5.50;;
77099;SDS011;66602;48.922;2.414;2023-05-29T02:11:23;5.55;;;5.05;;
77099;SDS011;66602;48.922;2.414;2023-05-29T02:13:50;12.68;;;5.45;;
77099;SDS011;66602;48.922;2.414;2023-05-29T02:16:16;9.13;;;5.10;;
77099;SDS011;66602;48.922;2.414;2023-05-29T02:18:42;13.18;;;5.47;;
77099;SDS011;66602;48.922;2.414;2023-05-29T02:21:08;5.53;;;4.80;;
77099;SDS011;66602;48.922;2.414;2023-05-29T02:23:34;10.85;;;5.05;;
77099;SDS011;66602;48.922;2.414;2023-05-29T02:25:59;9.60;;;5.65;;
77099;SDS011;66602;48.922;2.414;2023-05-29T02:28:25;7.97;;;5.28;;
77099;SDS011;66602;48.922;2.414;2023-05-29T02:30:50;6.55;;;5.28;;
77099;SDS011;66602;48.922;2.414;2023-05-29T02:33:16;16.98;;;5.43;;
77099;SDS011;66602;48.922;2.414;2023-05-29T02:35:41;10.27;;;5.55;;
77099;SDS011;66602;48.922;2.414;2023-05-29T02:38:07;7.38;;;5.35;;
77099;SDS011;66602;48.922;2.414;2023-05-29T02:40:32;9.65;;;5.40;;
77099;SDS011;66602;48.922;2.414;2023-05-29T02:42:57;7.15;;;5.43;;
77099;SDS011;66602;48.922;2.414;2023-05-29T02:45:23;7.10;;;5.43;;
77099;SDS011;66602;48.922;2.414;2023-05-29T02:47:48;8.10;;;5.95;;
77099;SDS011;66602;48.922;2.414;2023-05-29T02:50:14;10.10;;;5.78;;
77099;SDS011;66602;48.922;2.414;2023-05-29T02:52:39;7.97;;;5.85;;
77099;SDS011;66602;48.922;2.414;2023-05-29T02:55:05;14.88;;;6.30;;
77099;SDS011;66602;48.922;2.414;2023-05-29T02:57:31;12.68;;;6.05;;
77099;SDS011;66602;48.922;2.414;2023-05-29T02:59:57;9.05;;;6.07;;
77099;SDS011;66602;48.922;2.414;2023-05-29T03:02:23;13.30;;;6.32;;
77099;SDS011;66602;48.922;2.414;2023-05-29T03:04:48;15.32;;;5.43;;
77099;SDS011;66602;48.922;2.414;2023-05-29T03:07:17;10.48;;;5.65;;
77099;SDS011;66602;48.922;2.414;2023-05-29T03:09:43;10.65;;;6.35;;
77099;SDS011;66602;48.922;2.414;2023-05-29T03:12:08;13.98;;;6.60;;
77099;SDS011;66602;48.922;2.414;2023-05-29T03:14:34;9.60;;;5.65;;
77099;SDS011;66602;48.922;2.414;2023-05-29T03:17:04;8.30;;;6.40;;
77099;SDS011;66602;48.922;2.414;2023-05-29T03:19:30;9.32;;;5.75;;
77099;SDS011;66602;48.922;2.414;2023-05-29T03:21:56;9.55;;;6.97;;
77099;SDS011;66602;48.922;2.414;2023-05-29T03:24:21;8.23;;;6.43;;
77099;SDS011;66602;48.922;2.414;2023-05-29T03:26:48;18.65;;;6.32;;
77099;SDS011;66602;48.922;2.414;2023-05-29T03:29:15;12.55;;;6.38;;
77099;SDS011;66602;48.922;2.414;2023-05-29T03:31:41;16.08;;;8.20;;
77099;SDS011;66602;48.922;2.414;2023-05-29T03:34:07;11.25;;;6.55;;
77099;SDS011;66602;48.922;2.414;2023-05-29T03:36:32;8.93;;;6.63;;
77099;SDS011;66602;48.922;2.414;2023-05-29T03:38:58;11.55;;;7.13;;
77099;SDS011;66602;48.922;2.414;2023-05-29T03:41:24;9.35;;;6.35;;
77099;SDS011;66602;48.922;2.414;2023-05-29T03:43:50;13.15;;;6.25;;
77099;SDS011;66602;48.922;2.414;2023-05-29T03:46:16;9.45;;;6.10;;
77099;SDS011;66602;48.922;2.414;2023-05-29T03:48:41;10.70;;;7.20;;
77099;SDS011;66602;48.922;2.414;2023-05-29T03:51:07;8.70;;;6.35;;
77099;SDS011;66602;48.922;2.414;2023-05-29T03:53:32;10.85;;;7.93;;
77099;SDS011;66602;48.922;2.414;2023-05-29T03:55:57;10.73;;;6.68;;
77099;SDS011;66602;48.922;2.414;2023-05-29T03:58:23;15.20;;;7.18;;
77099;SDS011;66602;48.922;2.414;2023-05-29T04:00:48;11.80;;;7.25;;
77099;SDS011;66602;48.922;2.414;2023-05-29T04:03:14;11.82;;;6.80;;
77099;SDS011;66602;48.922;2.414;2023-05-29T04:05:40;9.90;;;7.45;;
77099;SDS011;66602;48.922;2.414;2023-05-29T04:08:05;10.18;;;7.13;;
77099;SDS011;66602;48.922;2.414;2023-05-29T04:10:34;11.98;;;6.80;;
77099;SDS011;66602;48.922;2.414;2023-05-29T04:13:02;11.68;;;7.15;;
77099;SDS011;66602;48.922;2.414;2023-05-29T04:15:27;9.15;;;7.80;;
77099;SDS011;66602;48.922;2.414;2023-05-29T04:17:53;11.82;;;7.43;;
77099;SDS011;66602;48.922;2.414;2023-05-29T04:20:20;14.13;;;7.38;;
77099;SDS011;66602;48.922;2.414;2023-05-29T04:22:45;10.50;;;6.88;;
77099;SDS011;66602;48.922;2.414;2023-05-29T04:25:11;13.00;;;7.20;;
77099;SDS011;66602;48.922;2.414;2023-05-29T04:27:36;18.75;;;7.38;;
77099;SDS011;66602;48.922;2.414;2023-05-29T04:30:05;14.05;;;7.03;;
77099;SDS011;66602;48.922;2.414;2023-05-29T04:32:32;13.05;;;7.30;;
77099;SDS011;66602;48.922;2.414;2023-05-29T04:35:01;7.53;;;6.70;;
77099;SDS011;66602;48.922;2.414;2023-05-29T04:37:31;17.98;;;7.63;;
77099;SDS011;66602;48.922;2.414;2023-05-29T04:39:56;9.70;;;8.02;;
77099;SDS011;66602;48.922;2.414;2023-05-29T04:42:22;15.02;;;7.68;;
77099;SDS011;66602;48.922;2.414;2023-05-29T04:44:50;10.65;;;7.75;;
77099;SDS011;66602;48.922;2.414;2023-05-29T04:47:17;8.50;;;7.72;;
77099;SDS011;66602;48.922;2.414;2023-05-29T04:49:44;12.20;;;8.20;;
77099;SDS011;66602;48.922;2.414;2023-05-29T04:52:13;10.73;;;7.93;;
77099;SDS011;66602;48.922;2.414;2023-05-29T04:54:40;16.70;;;8.40;;
77099;SDS011;66602;48.922;2.414;2023-05-29T04:57:05;9.15;;;7.65;;
77099;SDS011;66602;48.922;2.414;2023-05-29T04:59:31;14.43;;;8.48;;
77099;SDS011;66602;48.922;2.414;2023-05-29T05:01:56;15.15;;;8.50;;
77099;SDS011;66602;48.922;2.414;2023-05-29T05:04:22;9.73;;;8.13;;
77099;SDS011;66602;48.922;2.414;2023-05-29T05:06:47;16.25;;;8.57;;
77099;SDS011;66602;48.922;2.414;2023-05-29T05:09:13;13.25;;;8.70;;
77099;SDS011;66602;48.922;2.414;2023-05-29T05:11:38;14.93;;;8.23;;
77099;SDS011;66602;48.922;2.414;2023-05-29T05:14:04;20.65;;;9.30;;
77099;SDS011;66602;48.922;2.414;2023-05-29T05:16:29;15.27;;;9.15;;
77099;SDS011;66602;48.922;2.414;2023-05-29T05:18:55;9.95;;;8.30;;
77099;SDS011;66602;48.922;2.414;2023-05-29T05:21:20;18.30;;;8.90;;
77099;SDS011;66602;48.922;2.414;2023-05-29T05:23:46;13.00;;;9.32;;
77099;SDS011;66602;48.922;2.414;2023-05-29T05:26:12;14.43;;;8.75;;
77099;SDS011;66602;48.922;2.414;2023-05-29T05:28:37;16.48;;;9.10;;
77099;SDS011;66602;48.922;2.414;2023-05-29T05:31:02;18.63;;;9.93;;
77099;SDS011;66602;48.922;2.414;2023-05-29T05:33:28;18.00;;;9.10;;
77099;SDS011;66602;48.922;2.414;2023-05-29T05:35:53;11.40;;;9.00;;
77099;SDS011;66602;48.922;2.414;2023-05-29T05:38:19;12.55;;;9.02;;
77099;SDS011;66602;48.922;2.414;2023-05-29T05:40:44;10.23;;;8.15;;
77099;SDS011;66602;48.922;2.414;2023-05-29T05:43:10;12.43;;;9.20;;
77099;SDS011;66602;48.922;2.414;2023-05-29T05:45:36;18.50;;;9.13;;
77099;SDS011;66602;48.922;2.414;2023-05-29T05:48:02;12.02;;;8.15;;
77099;SDS011;66602;48.922;2.414;2023-05-29T05:50:28;21.05;;;8.73;;
77099;SDS011;66602;48.922;2.414;2023-05-29T05:52:54;12.13;;;7.82;;
77099;SDS011;66602;48.922;2.414;2023-05-29T05:55:20;17.30;;;8.90;;
77099;SDS011;66602;48.922;2.414;2023-05-29T05:57:45;14.48;;;8.57;;
77099;SDS011;66602;48.922;2.414;2023-05-29T06:00:11;9.55;;;7.45;;
77099;SDS011;66602;48.922;2.414;2023-05-29T06:02:37;25.08;;;8.50;;
77099;SDS011;66602;48.922;2.414;2023-05-29T06:05:03;11.32;;;8.35;;
77099;SDS011;66602;48.922;2.414;2023-05-29T06:07:29;14.48;;;8.45;;
77099;SDS011;66602;48.922;2.414;2023-05-29T06:09:55;14.27;;;8.48;;
77099;SDS011;66602;48.922;2.414;2023-05-29T06:12:21;15.38;;;8.02;;
77099;SDS011;66602;48.922;2.414;2023-05-29T06:14:46;11.90;;;8.07;;
77099;SDS011;66602;48.922;2.414;2023-05-29T06:17:11;13.98;;;8.50;;
77099;SDS011;66602;48.922;2.414;2023-05-29T06:19:38;8.88;;;8.00;;
77099;SDS011;66602;48.922;2.414;2023-05-29T06:22:03;9.35;;;7.60;;
77099;SDS011;66602;48.922;2.414;2023-05-29T06:24:29;11.48;;;8.43;;
77099;SDS011;66602;48.922;2.414;2023-05-29T06:26:54;12.85;;;7.85;;
77099;SDS011;66602;48.922;2.414;2023-05-29T06:29:20;13.45;;;8.15;;
77099;SDS011;66602;48.922;2.414;2023-05-29T06:31:45;7.93;;;7.18;;
77099;SDS011;66602;48.922;2.414;2023-05-29T06:34:11;14.38;;;8.32;;
77099;SDS011;66602;48.922;2.414;2023-05-29T06:36:36;8.27;;;7.03;;
77099;SDS011;66602;48.922;2.414;2023-05-29T06:39:03;9.95;;;7.30;;
77099;SDS011;66602;48.922;2.414;2023-05-29T06:41:28;21.45;;;8.02;;
77099;SDS011;66602;48.922;2.414;2023-05-29T06:43:54;12.38;;;8.00;;
77099;SDS011;66602;48.922;2.414;2023-05-29T06:46:19;12.25;;;8.05;;
77099;SDS011;66602;48.922;2.414;2023-05-29T06:48:45;18.30;;;8.20;;
77099;SDS011;66602;48.922;2.414;2023-05-29T06:51:10;13.15;;;7.72;;
77099;SDS011;66602;48.922;2.414;2023-05-29T06:53:40;11.13;;;7.75;;
77099;SDS011;66602;48.922;2.414;2023-05-29T06:56:05;12.55;;;7.18;;
77099;SDS011;66602;48.922;2.414;2023-05-29T06:58:31;11.45;;;6.60;;
77099;SDS011;66602;48.922;2.414;2023-05-29T07:00:57;11.57;;;6.97;;
77099;SDS011;66602;48.922;2.414;2023-05-29T07:03:24;6.93;;;6.32;;
77099;SDS011;66602;48.922;2.414;2023-05-29T07:05:51;6.85;;;6.15;;
77099;SDS011;66602;48.922;2.414;2023-05-29T07:08:17;6.45;;;5.85;;
77099;SDS011;66602;48.922;2.414;2023-05-29T07:10:42;7.97;;;6.10;;
77099;SDS011;66602;48.922;2.414;2023-05-29T07:13:08;12.35;;;5.72;;
77099;SDS011;66602;48.922;2.414;2023-05-29T07:15:33;8.38;;;5.20;;
77099;SDS011;66602;48.922;2.414;2023-05-29T07:17:59;8.65;;;6.00;;
77099;SDS011;66602;48.922;2.414;2023-05-29T07:20:25;8.63;;;6.03;;
77099;SDS011;66602;48.922;2.414;2023-05-29T07:22:50;6.78;;;5.57;;
77099;SDS011;66602;48.922;2.414;2023-05-29T07:25:16;6.40;;;5.80;;
77099;SDS011;66602;48.922;2.414;2023-05-29T07:27:41;9.02;;;5.72;;
77099;SDS011;66602;48.922;2.414;2023-05-29T07:30:07;13.48;;;5.80;;
77099;SDS011;66602;48.922;2.414;2023-05-29T07:32:32;11.55;;;5.68;;
77099;SDS011;66602;48.922;2.414;2023-05-29T07:34:58;17.30;;;5.30;;
77099;SDS011;66602;48.922;2.414;2023-05-29T07:37:24;8.50;;;5.25;;
77099;SDS011;66602;48.922;2.414;2023-05-29T07:39:49;5.90;;;5.40;;
77099;SDS011;66602;48.922;2.414;2023-05-29T07:42:15;6.57;;;5.00;;
77099;SDS011;66602;48.922;2.414;2023-05-29T07:44:40;5.70;;;5.20;;
77099;SDS011;66602;48.922;2.414;2023-05-29T07:47:09;9.57;;;4.97;;
77099;SDS011;66602;48.922;2.414;2023-05-29T07:49:34;6.72;;;4.65;;
77099;SDS011;66602;48.922;2.414;2023-05-29T07:52:03;5.90;;;5.40;;
77099;SDS011;66602;48.922;2.414;2023-05-29T07:54:29;10.43;;;5.50;;
77099;SDS011;66602;48.922;2.414;2023-05-29T07:56:57;4.70;;;4.32;;
77099;SDS011;66602;48.922;2.414;2023-05-29T07:59:23;9.75;;;5.28;;
77099;SDS011;66602;48.922;2.414;2023-05-29T08:01:49;5.80;;;4.68;;
77099;SDS011;66602;48.922;2.414;2023-05-29T08:04:14;10.35;;;4.88;;
77099;SDS011;66602;48.922;2.414;2023-05-29T08:06:40;8.68;;;5.10;;
77099;SDS011;66602;48.922;2.414;2023-05-29T08:09:07;8.75;;;5.32;;
77099;SDS011;66602;48.922;2.414;2023-05-29T08:11:33;9.50;;;5.85;;
77099;SDS011;66602;48.922;2.414;2023-05-29T08:13:58;6.88;;;4.57;;
77099;SDS011;66602;48.922;2.414;2023-05-29T08:16:24;5.95;;;4.82;;
77099;SDS011;66602;48.922;2.414;2023-05-29T08:18:50;13.13;;;5.22;;
77099;SDS011;66602;48.922;2.414;2023-05-29T08:21:15;13.32;;;5.10;;
77099;SDS011;66602;48.922;2.414;2023-05-29T08:23:41;7.10;;;5.32;;
77099;SDS011;66602;48.922;2.414;2023-05-29T08:26:06;5.78;;;4.78;;
77099;SDS011;66602;48.922;2.414;2023-05-29T08:28:32;11.93;;;5.38;;
77099;SDS011;66602;48.922;2.414;2023-05-29T08:30:57;11.35;;;5.13;;
77099;SDS011;66602;48.922;2.414;2023-05-29T08:33:23;9.40;;;5.50;;
77099;SDS011;66602;48.922;2.414;2023-05-29T08:35:48;7.18;;;5.53;;
77099;SDS011;66602;48.922;2.414;2023-05-29T08:38:14;5.32;;;4.82;;
77099;SDS011;66602;48.922;2.414;2023-05-29T08:40:39;6.53;;;5.28;;
77099;SDS011;66602;48.922;2.414;2023-05-29T08:43:15;6.10;;;4.95;;
77099;SDS011;66602;48.922;2.414;2023-05-29T08:45:44;11.52;;;5.10;;
77099;SDS011;66602;48.922;2.414;2023-05-29T08:48:13;5.60;;;4.80;;
77099;SDS011;66602;48.922;2.414;2023-05-29T08:50:43;5.20;;;4.57;;
77099;SDS011;66602;48.922;2.414;2023-05-29T08:53:13;9.23;;;4.80;;
77099;SDS011;66602;48.922;2.414;2023-05-29T08:55:40;5.38;;;4.57;;
77099;SDS011;66602;48.922;2.414;2023-05-29T08:58:06;7.60;;;4.82;;
77099;SDS011;66602;48.922;2.414;2023-05-29T09:00:32;8.30;;;4.82;;
77099;SDS011;66602;48.922;2.414;2023-05-29T09:02:58;7.78;;;4.78;;
77099;SDS011;66602;48.922;2.414;2023-05-29T09:05:24;5.22;;;4.78;;
77099;SDS011;66602;48.922;2.414;2023-05-29T09:07:52;8.70;;;5.05;;
77099;SDS011;66602;48.922;2.414;2023-05-29T09:10:22;9.88;;;5.07;;
77099;SDS011;66602;48.922;2.414;2023-05-29T09:12:47;8.25;;;4.72;;
77099;SDS011;66602;48.922;2.414;2023-05-29T09:15:22;5.25;;;4.85;;
77099;SDS011;66602;48.922;2.414;2023-05-29T09:17:52;6.88;;;4.95;;
77099;SDS011;66602;48.922;2.414;2023-05-29T09:20:19;9.15;;;5.82;;
77099;SDS011;66602;48.922;2.414;2023-05-29T09:23:01;11.25;;;5.43;;
77099;SDS011;66602;48.922;2.414;2023-05-29T09:27:58;9.50;;;5.50;;
77099;SDS011;66602;48.922;2.414;2023-05-29T09:33:07;14.38;;;5.03;;
77099;SDS011;66602;48.922;2.414;2023-05-29T09:35:38;12.30;;;5.28;;
77099;SDS011;66602;48.922;2.414;2023-05-29T09:38:05;14.43;;;6.32;;
77099;SDS011;66602;48.922;2.414;2023-05-29T09:40:32;9.25;;;5.78;;
77099;SDS011;66602;48.922;2.414;2023-05-29T09:43:05;6.70;;;6.10;;
77099;SDS011;66602;48.922;2.414;2023-05-29T09:45:44;7.55;;;5.78;;
77099;SDS011;66602;48.922;2.414;2023-05-29T09:48:14;10.43;;;5.60;;
77099;SDS011;66602;48.922;2.414;2023-05-29T09:50:41;5.95;;;5.57;;
77099;SDS011;66602;48.922;2.414;2023-05-29T09:53:22;6.28;;;5.78;;
77099;SDS011;66602;48.922;2.414;2023-05-29T09:55:50;9.77;;;6.55;;
77099;SDS011;66602;48.922;2.414;2023-05-29T09:58:23;6.03;;;5.13;;
77099;SDS011;66602;48.922;2.414;2023-05-29T10:00:49;10.70;;;7.82;;
77099;SDS011;66602;48.922;2.414;2023-05-29T10:03:19;16.55;;;6.53;;
77099;SDS011;66602;48.922;2.414;2023-05-29T10:05:50;7.03;;;5.70;;
77099;SDS011;66602;48.922;2.414;2023-05-29T10:08:19;13.43;;;6.70;;
77099;SDS011;66602;48.922;2.414;2023-05-29T10:10:46;19.85;;;8.50;;
77099;SDS011;66602;48.922;2.414;2023-05-29T10:13:17;8.57;;;7.25;;
77099;SDS011;66602;48.922;2.414;2023-05-29T10:15:44;22.20;;;9.00;;
77099;SDS011;66602;48.922;2.414;2023-05-29T10:20:38;6.47;;;6.03;;
77099;SDS011;66602;48.922;2.414;2023-05-29T10:23:09;5.97;;;5.57;;
77099;SDS011;66602;48.922;2.414;2023-05-29T10:25:36;13.82;;;5.70;;
77099;SDS011;66602;48.922;2.414;2023-05-29T10:28:04;10.10;;;5.95;;
77099;SDS011;66602;48.922;2.414;2023-05-29T10:36:13;5.72;;;5.32;;
77099;SDS011;66602;48.922;2.414;2023-05-29T10:38:46;7.97;;;5.88;;
77099;SDS011;66602;48.922;2.414;2023-05-29T10:43:53;7.07;;;6.32;;
77099;SDS011;66602;48.922;2.414;2023-05-29T10:46:19;12.85;;;5.95;;
77099;SDS011;66602;48.922;2.414;2023-05-29T10:48:45;8.13;;;5.90;;
77099;SDS011;66602;48.922;2.414;2023-05-29T10:51:27;7.25;;;5.80;;
77099;SDS011;66602;48.922;2.414;2023-05-29T10:53:54;8.43;;;5.60;;
77099;SDS011;66602;48.922;2.414;2023-05-29T10:56:21;10.82;;;5.63;;
77099;SDS011;66602;48.922;2.414;2023-05-29T10:58:52;8.23;;;6.25;;
77099;SDS011;66602;48.922;2.414;2023-05-29T11:01:23;6.40;;;4.65;;
77099;SDS011;66602;48.922;2.414;2023-05-29T11:03:53;5.57;;;5.18;;
77099;SDS011;66602;48.922;2.414;2023-05-29T11:06:43;5.40;;;4.88;;
77099;SDS011;66602;48.922;2.414;2023-05-29T11:15:04;8.90;;;6.28;;
77099;SDS011;66602;48.922;2.414;2023-05-29T11:20:04;5.43;;;5.05;;
77099;SDS011;66602;48.922;2.414;2023-05-29T11:23:14;7.95;;;5.15;;
77099;SDS011;66602;48.922;2.414;2023-05-29T11:25:27;5.20;;;4.80;;
77099;SDS011;66602;48.922;2.414;2023-05-29T11:27:53;7.47;;;4.88;;
77099;SDS011;66602;48.922;2.414;2023-05-29T11:30:20;8.27;;;4.30;;
77099;SDS011;66602;48.922;2.414;2023-05-29T11:32:46;8.20;;;4.70;;
77099;SDS011;66602;48.922;2.414;2023-05-29T11:35:13;8.98;;;4.72;;
77099;SDS011;66602;48.922;2.414;2023-05-29T11:37:39;5.55;;;4.30;;
77099;SDS011;66602;48.922;2.414;2023-05-29T11:40:08;7.55;;;4.50;;
77099;SDS011;66602;48.922;2.414;2023-05-29T11:42:34;5.85;;;4.88;;
77099;SDS011;66602;48.922;2.414;2023-05-29T11:45:13;6.68;;;4.90;;
77099;SDS011;66602;48.922;2.414;2023-05-29T11:47:53;12.65;;;5.43;;
77099;SDS011;66602;48.922;2.414;2023-05-29T11:50:28;6.30;;;4.40;;
77099;SDS011;66602;48.922;2.414;2023-05-29T11:52:57;10.65;;;5.38;;
77099;SDS011;66602;48.922;2.414;2023-05-29T11:55:23;13.38;;;4.35;;
77099;SDS011;66602;48.922;2.414;2023-05-29T11:57:51;6.40;;;3.97;;
77099;SDS011;66602;48.922;2.414;2023-05-29T12:00:21;10.27;;;4.40;;
77099;SDS011;66602;48.922;2.414;2023-05-29T12:02:47;6.40;;;4.30;;
77099;SDS011;66602;48.922;2.414;2023-05-29T12:05:16;7.60;;;4.15;;
77099;SDS011;66602;48.922;2.414;2023-05-29T12:07:52;5.90;;;4.35;;
77099;SDS011;66602;48.922;2.414;2023-05-29T12:10:29;11.93;;;4.75;;
77099;SDS011;66602;48.922;2.414;2023-05-29T12:12:58;3.95;;;3.55;;
77099;SDS011;66602;48.922;2.414;2023-05-29T12:15:26;5.68;;;3.58;;
77099;SDS011;66602;48.922;2.414;2023-05-29T12:17:52;4.68;;;3.50;;
77099;SDS011;66602;48.922;2.414;2023-05-29T12:20:19;6.72;;;3.33;;
77099;SDS011;66602;48.922;2.414;2023-05-29T12:22:47;12.18;;;3.95;;
77099;SDS011;66602;48.922;2.414;2023-05-29T12:25:14;3.78;;;3.47;;
77099;SDS011;66602;48.922;2.414;2023-05-29T12:27:41;3.60;;;3.30;;
77099;SDS011;66602;48.922;2.414;2023-05-29T12:30:09;5.65;;;3.25;;
77099;SDS011;66602;48.922;2.414;2023-05-29T12:32:38;5.28;;;3.58;;
77099;SDS011;66602;48.922;2.414;2023-05-29T12:37:47;9.15;;;4.22;;
77099;SDS011;66602;48.922;2.414;2023-05-29T12:40:14;5.93;;;3.35;;
77099;SDS011;66602;48.922;2.414;2023-05-29T12:42:40;5.68;;;3.30;;
77099;SDS011;66602;48.922;2.414;2023-05-29T12:45:07;7.57;;;3.67;;
77099;SDS011;66602;48.922;2.414;2023-05-29T12:47:33;12.85;;;3.80;;
77099;SDS011;66602;48.922;2.414;2023-05-29T12:49:59;14.93;;;3.22;;
77099;SDS011;66602;48.922;2.414;2023-05-29T12:52:29;4.05;;;3.38;;
77099;SDS011;66602;48.922;2.414;2023-05-29T12:54:55;6.15;;;3.33;;
77099;SDS011;66602;48.922;2.414;2023-05-29T12:57:20;9.30;;;3.90;;
77099;SDS011;66602;48.922;2.414;2023-05-29T12:59:48;8.98;;;3.35;;
77099;SDS011;66602;48.922;2.414;2023-05-29T13:02:13;4.82;;;2.60;;
77099;SDS011;66602;48.922;2.414;2023-05-29T13:04:41;7.50;;;3.97;;
77099;SDS011;66602;48.922;2.414;2023-05-29T13:07:06;6.13;;;3.40;;
77099;SDS011;66602;48.922;2.414;2023-05-29T13:09:31;6.38;;;2.97;;
77099;SDS011;66602;48.922;2.414;2023-05-29T13:11:57;8.30;;;3.30;;
77099;SDS011;66602;48.922;2.414;2023-05-29T13:14:22;3.92;;;2.83;;
77099;SDS011;66602;48.922;2.414;2023-05-29T13:16:49;6.93;;;2.65;;
77099;SDS011;66602;48.922;2.414;2023-05-29T13:19:14;10.18;;;3.15;;
77099;SDS011;66602;48.922;2.414;2023-05-29T13:21:40;9.63;;;2.95;;
77099;SDS011;66602;48.922;2.414;2023-05-29T13:26:38;4.38;;;3.45;;
77099;SDS011;66602;48.922;2.414;2023-05-29T13:29:03;4.95;;;3.00;;
77099;SDS011;66602;48.922;2.414;2023-05-29T13:31:29;6.18;;;3.30;;
77099;SDS011;66602;48.922;2.414;2023-05-29T13:33:54;7.05;;;2.72;;
77099;SDS011;66602;48.922;2.414;2023-05-29T13:36:19;4.43;;;4.03;;
77099;SDS011;66602;48.922;2.414;2023-05-29T13:38:45;10.30;;;3.20;;
77099;SDS011;66602;48.922;2.414;2023-05-29T13:41:11;7.05;;;2.83;;
77099;SDS011;66602;48.922;2.414;2023-05-29T13:43:36;6.03;;;3.28;;
77099;SDS011;66602;48.922;2.414;2023-05-29T13:46:02;6.28;;;2.92;;
77099;SDS011;66602;48.922;2.414;2023-05-29T13:48:27;3.85;;;2.92;;
77099;SDS011;66602;48.922;2.414;2023-05-29T13:50:53;6.32;;;3.20;;
77099;SDS011;66602;48.922;2.414;2023-05-29T13:53:18;3.88;;;2.72;;
77099;SDS011;66602;48.922;2.414;2023-05-29T13:55:44;10.18;;;3.22;;
77099;SDS011;66602;48.922;2.414;2023-05-29T13:58:10;4.22;;;3.25;;
77099;SDS011;66602;48.922;2.414;2023-05-29T14:00:35;7.75;;;3.20;;
77099;SDS011;66602;48.922;2.414;2023-05-29T14:03:01;7.32;;;2.97;;
77099;SDS011;66602;48.922;2.414;2023-05-29T14:05:26;14.13;;;3.70;;
77099;SDS011;66602;48.922;2.414;2023-05-29T14:07:52;8.57;;;4.25;;
77099;SDS011;66602;48.922;2.414;2023-05-29T14:10:17;7.13;;;3.70;;
77099;SDS011;66602;48.922;2.414;2023-05-29T14:12:43;7.93;;;3.45;;
77099;SDS011;66602;48.922;2.414;2023-05-29T14:15:09;4.30;;;3.03;;
77099;SDS011;66602;48.922;2.414;2023-05-29T14:17:35;14.65;;;3.85;;
77099;SDS011;66602;48.922;2.414;2023-05-29T14:20:00;13.43;;;3.67;;
77099;SDS011;66602;48.922;2.414;2023-05-29T14:22:29;7.50;;;4.22;;
77099;SDS011;66602;48.922;2.414;2023-05-29T14:24:55;3.78;;;3.10;;
77099;SDS011;66602;48.922;2.414;2023-05-29T14:27:21;8.48;;;3.60;;
77099;SDS011;66602;48.922;2.414;2023-05-29T14:29:46;9.45;;;3.35;;
77099;SDS011;66602;48.922;2.414;2023-05-29T14:32:11;6.45;;;3.67;;
77099;SDS011;66602;48.922;2.414;2023-05-29T14:34:37;5.35;;;4.53;;
77099;SDS011;66602;48.922;2.414;2023-05-29T14:37:03;18.95;;;12.95;;
77099;SDS011;66602;48.922;2.414;2023-05-29T14:39:29;28.17;;;10.60;;
77099;SDS011;66602;48.922;2.414;2023-05-29T14:41:54;4.40;;;3.60;;
77099;SDS011;66602;48.922;2.414;2023-05-29T14:44:19;19.10;;;4.40;;
77099;SDS011;66602;48.922;2.414;2023-05-29T14:46:45;14.57;;;11.02;;
77099;SDS011;66602;48.922;2.414;2023-05-29T14:49:10;12.43;;;5.78;;
77099;SDS011;66602;48.922;2.414;2023-05-29T14:51:36;9.70;;;4.60;;
77099;SDS011;66602;48.922;2.414;2023-05-29T14:54:02;11.43;;;5.97;;
77099;SDS011;66602;48.922;2.414;2023-05-29T14:56:27;12.10;;;3.45;;
77099;SDS011;66602;48.922;2.414;2023-05-29T14:58:53;12.57;;;4.15;;
77099;SDS011;66602;48.922;2.414;2023-05-29T15:01:18;32.45;;;9.68;;
77099;SDS011;66602;48.922;2.414;2023-05-29T15:03:44;19.73;;;9.45;;
77099;SDS011;66602;48.922;2.414;2023-05-29T15:06:10;17.02;;;8.00;;
77099;SDS011;66602;48.922;2.414;2023-05-29T15:08:39;12.05;;;4.88;;
77099;SDS011;66602;48.922;2.414;2023-05-29T15:11:07;12.80;;;5.57;;